Ledger, Montana
Current Conditions -  °F | °C
As of 7:56 PM on Thursday 18 Dec 2014 (Local Time) from KCTB Reporting Station
Clear Clear  
Wind Chill: 23°   Ceiling: Unl
Heat Index: 34°   Visibility: 10mi
Dew Point: 26°   Wind: 18mph
Humidity: 73%   Direction: 260°W
Pressure: 29.86"   Gusts: NA
Location:  48.26°N, 111.82°W
Report Text: KCTB 190256Z AUTO 26016KT 10SM CLR 01/M03 A2986 RMK AO2 SLP136 T00111033 50000
Loading
Personal Weather Stations






























Interactive Weather Map New forecast layout! Learn more

10-Day Weather Forecast

Advertisements
Track Severe Weather on mobile